sensor_id;sensor_type;location;lat;lon;timestamp;temperature;humidity
5415;DHT22;2730;51.512;7.504;2024-02-04T00:00:09;10.40;1.00
5415;DHT22;2730;51.512;7.504;2024-02-04T00:02:38;10.40;1.00
5415;DHT22;2730;51.512;7.504;2024-02-04T00:05:05;10.40;1.00
5415;DHT22;2730;51.512;7.504;2024-02-04T00:07:32;10.40;1.00
5415;DHT22;2730;51.512;7.504;2024-02-04T00:09:59;10.40;1.00
5415;DHT22;2730;51.512;7.504;2024-02-04T00:12:31;10.30;1.00
5415;DHT22;2730;51.512;7.504;2024-02-04T00:15:01;10.40;1.00
5415;DHT22;2730;51.512;7.504;2024-02-04T00:17:31;10.40;1.00
5415;DHT22;2730;51.512;7.504;2024-02-04T00:19:59;10.40;1.00
5415;DHT22;2730;51.512;7.504;2024-02-04T00:22:26;10.30;1.00
5415;DHT22;2730;51.512;7.504;2024-02-04T00:24:55;10.40;1.00
5415;DHT22;2730;51.512;7.504;2024-02-04T00:27:27;10.40;1.00
5415;DHT22;2730;51.512;7.504;2024-02-04T00:29:54;10.40;1.00
5415;DHT22;2730;51.512;7.504;2024-02-04T00:32:21;10.40;1.00
5415;DHT22;2730;51.512;7.504;2024-02-04T00:34:49;10.40;1.00
5415;DHT22;2730;51.512;7.504;2024-02-04T00:37:16;10.30;1.00
5415;DHT22;2730;51.512;7.504;2024-02-04T00:39:43;10.30;1.00
5415;DHT22;2730;51.512;7.504;2024-02-04T00:42:10;10.20;1.00
5415;DHT22;2730;51.512;7.504;2024-02-04T00:44:37;10.30;1.00
5415;DHT22;2730;51.512;7.504;2024-02-04T00:47:05;10.30;1.00
5415;DHT22;2730;51.512;7.504;2024-02-04T00:49:32;10.20;1.00
5415;DHT22;2730;51.512;7.504;2024-02-04T00:52:00;10.30;1.00
5415;DHT22;2730;51.512;7.504;2024-02-04T00:54:26;10.30;1.00
5415;DHT22;2730;51.512;7.504;2024-02-04T00:56:53;10.30;1.00
5415;DHT22;2730;51.512;7.504;2024-02-04T00:59:21;10.30;1.00
5415;DHT22;2730;51.512;7.504;2024-02-04T01:01:47;10.30;1.00
5415;DHT22;2730;51.512;7.504;2024-02-04T01:04:14;10.30;1.00
5415;DHT22;2730;51.512;7.504;2024-02-04T01:06:42;10.30;1.00
5415;DHT22;2730;51.512;7.504;2024-02-04T01:09:10;10.30;1.00
5415;DHT22;2730;51.512;7.504;2024-02-04T01:11:37;10.20;1.00
5415;DHT22;2730;51.512;7.504;2024-02-04T01:14:03;10.20;1.00
5415;DHT22;2730;51.512;7.504;2024-02-04T01:16:30;10.10;1.00
5415;DHT22;2730;51.512;7.504;2024-02-04T01:18:57;10.00;1.00
5415;DHT22;2730;51.512;7.504;2024-02-04T01:21:25;10.10;5.10
5415;DHT22;2730;51.512;7.504;2024-02-04T01:23:53;10.10;6.60
5415;DHT22;2730;51.512;7.504;2024-02-04T01:26:20;10.10;6.80
5415;DHT22;2730;51.512;7.504;2024-02-04T01:28:49;10.00;14.10
5415;DHT22;2730;51.512;7.504;2024-02-04T01:31:16;10.00;19.90
5415;DHT22;2730;51.512;7.504;2024-02-04T01:33:43;9.90;28.60
5415;DHT22;2730;51.512;7.504;2024-02-04T01:36:10;9.90;42.20
5415;DHT22;2730;51.512;7.504;2024-02-04T01:38:38;9.80;48.10
5415;DHT22;2730;51.512;7.504;2024-02-04T01:41:05;9.80;58.10
5415;DHT22;2730;51.512;7.504;2024-02-04T01:43:33;9.80;74.90
5415;DHT22;2730;51.512;7.504;2024-02-04T01:45:59;9.80;84.80
5415;DHT22;2730;51.512;7.504;2024-02-04T01:48:31;9.80;91.30
5415;DHT22;2730;51.512;7.504;2024-02-04T01:50:59;9.80;92.50
5415;DHT22;2730;51.512;7.504;2024-02-04T01:53:28;9.80;94.30
5415;DHT22;2730;51.512;7.504;2024-02-04T01:55:55;9.80;96.20
5415;DHT22;2730;51.512;7.504;2024-02-04T01:58:23;9.80;99.90
5415;DHT22;2730;51.512;7.504;2024-02-04T02:00:51;9.90;99.90
5415;DHT22;2730;51.512;7.504;2024-02-04T02:03:19;9.80;99.90
5415;DHT22;2730;51.512;7.504;2024-02-04T02:05:47;9.80;99.90
5415;DHT22;2730;51.512;7.504;2024-02-04T02:08:16;9.80;99.90
5415;DHT22;2730;51.512;7.504;2024-02-04T02:10:46;9.90;99.90
5415;DHT22;2730;51.512;7.504;2024-02-04T02:13:16;9.90;99.90
5415;DHT22;2730;51.512;7.504;2024-02-04T02:15:48;9.80;99.90
5415;DHT22;2730;51.512;7.504;2024-02-04T02:18:22;9.90;99.90
5415;DHT22;2730;51.512;7.504;2024-02-04T02:21:07;9.90;99.90
5415;DHT22;2730;51.512;7.504;2024-02-04T02:23:48;9.80;99.90
5415;DHT22;2730;51.512;7.504;2024-02-04T02:26:17;9.80;99.90
5415;DHT22;2730;51.512;7.504;2024-02-04T02:28:44;9.80;99.90
5415;DHT22;2730;51.512;7.504;2024-02-04T02:31:11;9.90;99.90
5415;DHT22;2730;51.512;7.504;2024-02-04T02:33:38;9.90;99.90
5415;DHT22;2730;51.512;7.504;2024-02-04T02:36:13;9.80;99.90
5415;DHT22;2730;51.512;7.504;2024-02-04T02:38:46;9.80;99.90
5415;DHT22;2730;51.512;7.504;2024-02-04T02:41:20;9.90;99.90
5415;DHT22;2730;51.512;7.504;2024-02-04T02:43:49;9.80;99.90
5415;DHT22;2730;51.512;7.504;2024-02-04T02:46:18;9.90;99.90
5415;DHT22;2730;51.512;7.504;2024-02-04T02:48:45;9.80;99.90
5415;DHT22;2730;51.512;7.504;2024-02-04T02:51:12;9.80;99.90
5415;DHT22;2730;51.512;7.504;2024-02-04T02:53:39;9.80;99.90
5415;DHT22;2730;51.512;7.504;2024-02-04T02:56:06;9.80;99.90
5415;DHT22;2730;51.512;7.504;2024-02-04T02:58:35;9.80;99.90
5415;DHT22;2730;51.512;7.504;2024-02-04T03:01:02;9.80;99.90
5415;DHT22;2730;51.512;7.504;2024-02-04T03:03:29;9.90;99.90
5415;DHT22;2730;51.512;7.504;2024-02-04T03:05:56;9.90;99.90
5415;DHT22;2730;51.512;7.504;2024-02-04T03:08:23;9.90;99.90
5415;DHT22;2730;51.512;7.504;2024-02-04T03:10:52;9.90;99.90
5415;DHT22;2730;51.512;7.504;2024-02-04T03:13:18;9.90;99.90
5415;DHT22;2730;51.512;7.504;2024-02-04T03:15:46;9.90;99.90
5415;DHT22;2730;51.512;7.504;2024-02-04T03:18:13;9.90;99.90
5415;DHT22;2730;51.512;7.504;2024-02-04T03:20:40;9.90;99.90
5415;DHT22;2730;51.512;7.504;2024-02-04T03:23:10;9.90;99.90
5415;DHT22;2730;51.512;7.504;2024-02-04T03:25:36;9.90;99.90
5415;DHT22;2730;51.512;7.504;2024-02-04T03:28:03;9.90;99.90
5415;DHT22;2730;51.512;7.504;2024-02-04T03:30:30;9.90;99.90
5415;DHT22;2730;51.512;7.504;2024-02-04T03:32:58;9.90;99.90
5415;DHT22;2730;51.512;7.504;2024-02-04T03:35:28;10.00;99.90
5415;DHT22;2730;51.512;7.504;2024-02-04T03:37:54;10.00;99.90
5415;DHT22;2730;51.512;7.504;2024-02-04T03:40:21;9.90;99.90
5415;DHT22;2730;51.512;7.504;2024-02-04T03:42:50;9.90;99.90
5415;DHT22;2730;51.512;7.504;2024-02-04T03:45:16;9.90;99.90
5415;DHT22;2730;51.512;7.504;2024-02-04T03:47:43;9.90;99.90
5415;DHT22;2730;51.512;7.504;2024-02-04T03:50:11;9.90;99.90
5415;DHT22;2730;51.512;7.504;2024-02-04T03:52:38;9.80;99.90
5415;DHT22;2730;51.512;7.504;2024-02-04T03:55:06;9.90;99.90
5415;DHT22;2730;51.512;7.504;2024-02-04T03:57:35;9.90;99.90
5415;DHT22;2730;51.512;7.504;2024-02-04T04:00:02;9.90;99.90
5415;DHT22;2730;51.512;7.504;2024-02-04T04:02:30;9.90;99.90
5415;DHT22;2730;51.512;7.504;2024-02-04T04:04:59;9.90;99.90
5415;DHT22;2730;51.512;7.504;2024-02-04T04:07:27;9.90;99.90
5415;DHT22;2730;51.512;7.504;2024-02-04T04:09:54;9.90;99.40
5415;DHT22;2730;51.512;7.504;2024-02-04T04:12:21;9.90;97.90
5415;DHT22;2730;51.512;7.504;2024-02-04T04:14:48;9.90;98.90
5415;DHT22;2730;51.512;7.504;2024-02-04T04:17:15;9.90;98.30
5415;DHT22;2730;51.512;7.504;2024-02-04T04:19:41;9.90;98.90
5415;DHT22;2730;51.512;7.504;2024-02-04T04:22:08;9.90;99.90
5415;DHT22;2730;51.512;7.504;2024-02-04T04:24:38;9.90;99.90
5415;DHT22;2730;51.512;7.504;2024-02-04T04:27:05;10.00;99.90
5415;DHT22;2730;51.512;7.504;2024-02-04T04:29:32;9.90;99.90
5415;DHT22;2730;51.512;7.504;2024-02-04T04:31:58;9.90;99.90
5415;DHT22;2730;51.512;7.504;2024-02-04T04:34:25;10.00;99.90
5415;DHT22;2730;51.512;7.504;2024-02-04T04:36:52;9.90;99.90
5415;DHT22;2730;51.512;7.504;2024-02-04T04:39:19;10.00;99.90
5415;DHT22;2730;51.512;7.504;2024-02-04T04:41:47;10.00;99.90
5415;DHT22;2730;51.512;7.504;2024-02-04T04:44:14;10.00;99.90
5415;DHT22;2730;51.512;7.504;2024-02-04T04:46:41;10.00;99.90
5415;DHT22;2730;51.512;7.504;2024-02-04T04:49:10;10.10;99.90
5415;DHT22;2730;51.512;7.504;2024-02-04T04:51:36;10.00;99.90
5415;DHT22;2730;51.512;7.504;2024-02-04T04:54:03;10.00;99.90
5415;DHT22;2730;51.512;7.504;2024-02-04T04:56:30;10.00;99.90
5415;DHT22;2730;51.512;7.504;2024-02-04T04:59:00;10.10;99.90
5415;DHT22;2730;51.512;7.504;2024-02-04T05:01:27;10.00;99.90
5415;DHT22;2730;51.512;7.504;2024-02-04T05:03:54;10.10;99.90
5415;DHT22;2730;51.512;7.504;2024-02-04T05:06:21;10.10;99.90
5415;DHT22;2730;51.512;7.504;2024-02-04T05:08:48;10.00;99.90
5415;DHT22;2730;51.512;7.504;2024-02-04T05:11:15;10.10;99.90
5415;DHT22;2730;51.512;7.504;2024-02-04T05:13:42;10.10;99.90
5415;DHT22;2730;51.512;7.504;2024-02-04T05:16:12;10.10;99.90
5415;DHT22;2730;51.512;7.504;2024-02-04T05:18:39;10.10;99.90
5415;DHT22;2730;51.512;7.504;2024-02-04T05:21:08;10.00;99.90
5415;DHT22;2730;51.512;7.504;2024-02-04T05:23:37;10.00;99.90
5415;DHT22;2730;51.512;7.504;2024-02-04T05:26:07;10.00;99.90
5415;DHT22;2730;51.512;7.504;2024-02-04T05:28:35;10.00;99.90
5415;DHT22;2730;51.512;7.504;2024-02-04T05:31:02;10.00;99.90
5415;DHT22;2730;51.512;7.504;2024-02-04T05:33:30;10.10;99.90
5415;DHT22;2730;51.512;7.504;2024-02-04T05:35:58;10.00;96.80
5415;DHT22;2730;51.512;7.504;2024-02-04T05:38:25;10.00;93.50
5415;DHT22;2730;51.512;7.504;2024-02-04T05:40:52;10.10;94.60
5415;DHT22;2730;51.512;7.504;2024-02-04T05:43:19;10.00;79.10
5415;DHT22;2730;51.512;7.504;2024-02-04T05:45:45;10.10;73.70
5415;DHT22;2730;51.512;7.504;2024-02-04T05:48:12;10.10;68.50
5415;DHT22;2730;51.512;7.504;2024-02-04T05:50:40;10.10;60.80
5415;DHT22;2730;51.512;7.504;2024-02-04T05:53:07;10.00;64.40
5415;DHT22;2730;51.512;7.504;2024-02-04T05:55:34;10.00;58.20
5415;DHT22;2730;51.512;7.504;2024-02-04T05:58:01;10.00;52.80
5415;DHT22;2730;51.512;7.504;2024-02-04T06:00:27;10.00;47.50
5415;DHT22;2730;51.512;7.504;2024-02-04T06:02:54;10.00;46.40
5415;DHT22;2730;51.512;7.504;2024-02-04T06:05:21;10.00;31.10
5415;DHT22;2730;51.512;7.504;2024-02-04T06:07:49;9.90;17.00
5415;DHT22;2730;51.512;7.504;2024-02-04T06:10:16;10.00;17.40
5415;DHT22;2730;51.512;7.504;2024-02-04T06:12:44;10.10;22.70
5415;DHT22;2730;51.512;7.504;2024-02-04T06:15:13;10.10;18.50
5415;DHT22;2730;51.512;7.504;2024-02-04T06:17:40;10.10;16.80
5415;DHT22;2730;51.512;7.504;2024-02-04T06:20:08;10.10;11.50
5415;DHT22;2730;51.512;7.504;2024-02-04T06:22:35;10.10;7.70
5415;DHT22;2730;51.512;7.504;2024-02-04T06:25:04;10.10;8.10
5415;DHT22;2730;51.512;7.504;2024-02-04T06:27:31;10.10;2.10
5415;DHT22;2730;51.512;7.504;2024-02-04T06:29:58;10.10;4.20
5415;DHT22;2730;51.512;7.504;2024-02-04T06:32:25;10.00;5.00
5415;DHT22;2730;51.512;7.504;2024-02-04T06:34:53;10.00;8.40
5415;DHT22;2730;51.512;7.504;2024-02-04T06:37:21;9.90;11.90
5415;DHT22;2730;51.512;7.504;2024-02-04T06:39:48;9.90;20.90
5415;DHT22;2730;51.512;7.504;2024-02-04T06:42:17;9.90;24.60
5415;DHT22;2730;51.512;7.504;2024-02-04T06:44:44;9.90;28.80
5415;DHT22;2730;51.512;7.504;2024-02-04T06:47:11;10.00;33.40
5415;DHT22;2730;51.512;7.504;2024-02-04T06:49:39;9.90;31.90
5415;DHT22;2730;51.512;7.504;2024-02-04T06:52:06;9.90;34.60
5415;DHT22;2730;51.512;7.504;2024-02-04T06:54:35;10.00;38.10
5415;DHT22;2730;51.512;7.504;2024-02-04T06:57:02;9.90;36.00
5415;DHT22;2730;51.512;7.504;2024-02-04T06:59:30;9.90;46.90
5415;DHT22;2730;51.512;7.504;2024-02-04T07:01:57;10.00;57.40
5415;DHT22;2730;51.512;7.504;2024-02-04T07:04:24;9.90;60.20
5415;DHT22;2730;51.512;7.504;2024-02-04T07:06:51;9.90;65.60
5415;DHT22;2730;51.512;7.504;2024-02-04T07:09:18;9.90;79.30
5415;DHT22;2730;51.512;7.504;2024-02-04T07:11:45;9.90;78.30
5415;DHT22;2730;51.512;7.504;2024-02-04T07:14:12;9.90;81.10
5415;DHT22;2730;51.512;7.504;2024-02-04T07:16:41;9.90;80.40
5415;DHT22;2730;51.512;7.504;2024-02-04T07:19:07;9.90;83.00
5415;DHT22;2730;51.512;7.504;2024-02-04T07:21:35;9.80;92.40
5415;DHT22;2730;51.512;7.504;2024-02-04T07:24:02;9.90;95.40
5415;DHT22;2730;51.512;7.504;2024-02-04T07:26:30;9.90;96.00
5415;DHT22;2730;51.512;7.504;2024-02-04T07:28:56;9.90;95.70
5415;DHT22;2730;51.512;7.504;2024-02-04T07:31:23;9.90;93.60
5415;DHT22;2730;51.512;7.504;2024-02-04T07:33:51;10.00;94.50
5415;DHT22;2730;51.512;7.504;2024-02-04T07:36:20;10.00;91.40
5415;DHT22;2730;51.512;7.504;2024-02-04T07:38:47;10.10;84.90
5415;DHT22;2730;51.512;7.504;2024-02-04T07:41:14;10.10;67.30
5415;DHT22;2730;51.512;7.504;2024-02-04T07:43:42;10.10;59.30
5415;DHT22;2730;51.512;7.504;2024-02-04T07:46:10;10.10;43.30
5415;DHT22;2730;51.512;7.504;2024-02-04T07:48:37;10.10;38.20
5415;DHT22;2730;51.512;7.504;2024-02-04T07:51:05;10.10;29.10
5415;DHT22;2730;51.512;7.504;2024-02-04T07:53:33;10.10;28.80
5415;DHT22;2730;51.512;7.504;2024-02-04T07:56:01;10.20;31.50
5415;DHT22;2730;51.512;7.504;2024-02-04T07:58:29;10.20;23.40
5415;DHT22;2730;51.512;7.504;2024-02-04T08:00:56;10.20;16.40
5415;DHT22;2730;51.512;7.504;2024-02-04T08:03:23;10.20;18.40
5415;DHT22;2730;51.512;7.504;2024-02-04T08:05:49;10.20;17.30
5415;DHT22;2730;51.512;7.504;2024-02-04T08:08:16;10.30;10.00
5415;DHT22;2730;51.512;7.504;2024-02-04T08:10:43;10.30;1.00
5415;DHT22;2730;51.512;7.504;2024-02-04T08:13:10;10.20;1.00
5415;DHT22;2730;51.512;7.504;2024-02-04T08:15:37;10.20;1.00
5415;DHT22;2730;51.512;7.504;2024-02-04T08:18:04;10.20;1.00
5415;DHT22;2730;51.512;7.504;2024-02-04T08:20:31;10.20;1.00
5415;DHT22;2730;51.512;7.504;2024-02-04T08:22:59;10.30;1.00
5415;DHT22;2730;51.512;7.504;2024-02-04T08:25:34;10.30;1.00
5415;DHT22;2730;51.512;7.504;2024-02-04T08:28:02;10.40;1.00
5415;DHT22;2730;51.512;7.504;2024-02-04T08:30:29;10.40;1.00
5415;DHT22;2730;51.512;7.504;2024-02-04T08:32:57;10.40;1.00
5415;DHT22;2730;51.512;7.504;2024-02-04T08:35:24;10.30;1.00
5415;DHT22;2730;51.512;7.504;2024-02-04T08:37:50;10.40;1.00
5415;DHT22;2730;51.512;7.504;2024-02-04T08:40:17;10.40;1.00
5415;DHT22;2730;51.512;7.504;2024-02-04T08:42:47;10.40;1.00
5415;DHT22;2730;51.512;7.504;2024-02-04T08:45:14;10.40;1.00
5415;DHT22;2730;51.512;7.504;2024-02-04T08:47:43;10.40;1.00
5415;DHT22;2730;51.512;7.504;2024-02-04T08:50:11;10.50;1.00
5415;DHT22;2730;51.512;7.504;2024-02-04T08:52:38;10.40;1.00
5415;DHT22;2730;51.512;7.504;2024-02-04T08:55:05;10.50;1.00
5415;DHT22;2730;51.512;7.504;2024-02-04T08:57:32;10.50;1.00
5415;DHT22;2730;51.512;7.504;2024-02-04T09:00:01;10.50;1.00
5415;DHT22;2730;51.512;7.504;2024-02-04T09:02:34;10.50;1.00
5415;DHT22;2730;51.512;7.504;2024-02-04T09:05:01;10.50;1.00
5415;DHT22;2730;51.512;7.504;2024-02-04T09:07:28;10.50;1.00
5415;DHT22;2730;51.512;7.504;2024-02-04T09:09:55;10.50;1.00
5415;DHT22;2730;51.512;7.504;2024-02-04T09:12:25;10.50;1.00
5415;DHT22;2730;51.512;7.504;2024-02-04T09:14:52;10.50;1.00
5415;DHT22;2730;51.512;7.504;2024-02-04T09:17:20;10.50;1.00
5415;DHT22;2730;51.512;7.504;2024-02-04T09:19:47;10.70;1.00
5415;DHT22;2730;51.512;7.504;2024-02-04T09:22:17;10.70;1.00
5415;DHT22;2730;51.512;7.504;2024-02-04T09:24:45;10.60;1.00
5415;DHT22;2730;51.512;7.504;2024-02-04T09:27:12;10.60;1.00
5415;DHT22;2730;51.512;7.504;2024-02-04T09:29:39;10.60;1.00
5415;DHT22;2730;51.512;7.504;2024-02-04T09:32:06;10.60;1.00
5415;DHT22;2730;51.512;7.504;2024-02-04T09:34:36;10.60;1.00
5415;DHT22;2730;51.512;7.504;2024-02-04T09:37:06;10.60;1.00
5415;DHT22;2730;51.512;7.504;2024-02-04T09:39:33;10.50;1.00
5415;DHT22;2730;51.512;7.504;2024-02-04T09:41:59;10.50;1.00
5415;DHT22;2730;51.512;7.504;2024-02-04T09:44:26;10.40;1.00
5415;DHT22;2730;51.512;7.504;2024-02-04T09:46:54;10.30;1.00
5415;DHT22;2730;51.512;7.504;2024-02-04T09:49:25;10.20;1.00
5415;DHT22;2730;51.512;7.504;2024-02-04T09:51:55;10.10;1.00
5415;DHT22;2730;51.512;7.504;2024-02-04T09:54:24;10.00;1.00
5415;DHT22;2730;51.512;7.504;2024-02-04T09:56:54;10.00;1.00
5415;DHT22;2730;51.512;7.504;2024-02-04T09:59:22;9.90;1.00
5415;DHT22;2730;51.512;7.504;2024-02-04T10:01:55;9.90;1.00
5415;DHT22;2730;51.512;7.504;2024-02-04T10:04:23;9.90;1.00
5415;DHT22;2730;51.512;7.504;2024-02-04T10:06:50;9.90;1.00
5415;DHT22;2730;51.512;7.504;2024-02-04T10:09:20;9.80;1.00
5415;DHT22;2730;51.512;7.504;2024-02-04T10:11:48;9.80;1.00
5415;DHT22;2730;51.512;7.504;2024-02-04T10:14:16;9.70;1.00
5415;DHT22;2730;51.512;7.504;2024-02-04T10:16:44;9.70;1.00
5415;DHT22;2730;51.512;7.504;2024-02-04T10:19:11;9.60;1.00
5415;DHT22;2730;51.512;7.504;2024-02-04T10:21:38;9.50;3.20
5415;DHT22;2730;51.512;7.504;2024-02-04T10:24:10;9.40;15.50
5415;DHT22;2730;51.512;7.504;2024-02-04T10:26:38;9.40;31.30
5415;DHT22;2730;51.512;7.504;2024-02-04T10:29:07;9.40;43.00
5415;DHT22;2730;51.512;7.504;2024-02-04T10:31:34;9.40;41.60
5415;DHT22;2730;51.512;7.504;2024-02-04T10:34:04;9.40;31.50
5415;DHT22;2730;51.512;7.504;2024-02-04T10:36:34;9.40;28.80
5415;DHT22;2730;51.512;7.504;2024-02-04T10:39:01;9.40;32.90
5415;DHT22;2730;51.512;7.504;2024-02-04T10:41:29;9.40;32.80
5415;DHT22;2730;51.512;7.504;2024-02-04T10:44:03;9.50;44.30
5415;DHT22;2730;51.512;7.504;2024-02-04T10:46:33;9.60;57.10
5415;DHT22;2730;51.512;7.504;2024-02-04T10:49:03;9.70;57.60
5415;DHT22;2730;51.512;7.504;2024-02-04T10:51:33;9.80;56.80
5415;DHT22;2730;51.512;7.504;2024-02-04T10:54:03;9.90;61.50
5415;DHT22;2730;51.512;7.504;2024-02-04T10:56:34;10.00;63.60
5415;DHT22;2730;51.512;7.504;2024-02-04T10:59:07;10.10;56.40
5415;DHT22;2730;51.512;7.504;2024-02-04T11:01:38;10.10;47.90
5415;DHT22;2730;51.512;7.504;2024-02-04T11:04:05;10.20;38.60
5415;DHT22;2730;51.512;7.504;2024-02-04T11:06:35;10.30;34.70
5415;DHT22;2730;51.512;7.504;2024-02-04T11:09:04;10.30;25.30
5415;DHT22;2730;51.512;7.504;2024-02-04T11:11:32;10.50;13.80
5415;DHT22;2730;51.512;7.504;2024-02-04T11:14:01;10.70;9.00
5415;DHT22;2730;51.512;7.504;2024-02-04T11:16:41;10.80;1.00
5415;DHT22;2730;51.512;7.504;2024-02-04T11:19:23;11.00;1.00
5415;DHT22;2730;51.512;7.504;2024-02-04T11:22:18;11.10;1.00
5415;DHT22;2730;51.512;7.504;2024-02-04T11:25:03;11.30;1.00
5415;DHT22;2730;51.512;7.504;2024-02-04T11:27:35;11.50;1.00
5415;DHT22;2730;51.512;7.504;2024-02-04T11:30:04;11.50;1.00
5415;DHT22;2730;51.512;7.504;2024-02-04T11:32:37;11.60;1.00
5415;DHT22;2730;51.512;7.504;2024-02-04T11:35:06;11.60;1.00
5415;DHT22;2730;51.512;7.504;2024-02-04T11:37:34;11.50;1.00
5415;DHT22;2730;51.512;7.504;2024-02-04T11:40:05;11.40;1.00
5415;DHT22;2730;51.512;7.504;2024-02-04T11:42:32;11.40;1.00
5415;DHT22;2730;51.512;7.504;2024-02-04T11:45:13;11.40;1.00
5415;DHT22;2730;51.512;7.504;2024-02-04T11:47:42;11.40;1.00
5415;DHT22;2730;51.512;7.504;2024-02-04T11:50:09;11.40;1.00
5415;DHT22;2730;51.512;7.504;2024-02-04T11:52:37;11.40;1.00
5415;DHT22;2730;51.512;7.504;2024-02-04T11:55:12;11.40;1.00
5415;DHT22;2730;51.512;7.504;2024-02-04T11:57:40;11.40;1.00
5415;DHT22;2730;51.512;7.504;2024-02-04T12:00:09;11.20;1.00
5415;DHT22;2730;51.512;7.504;2024-02-04T12:02:36;11.20;1.00
5415;DHT22;2730;51.512;7.504;2024-02-04T12:05:05;11.20;1.00
5415;DHT22;2730;51.512;7.504;2024-02-04T12:07:32;11.00;1.00
5415;DHT22;2730;51.512;7.504;2024-02-04T12:09:59;11.10;1.00
5415;DHT22;2730;51.512;7.504;2024-02-04T12:12:26;11.00;1.00
5415;DHT22;2730;51.512;7.504;2024-02-04T12:14:53;11.10;1.00
5415;DHT22;2730;51.512;7.504;2024-02-04T12:17:22;11.20;1.00
5415;DHT22;2730;51.512;7.504;2024-02-04T12:19:50;11.00;1.00
5415;DHT22;2730;51.512;7.504;2024-02-04T12:22:18;10.90;1.00
5415;DHT22;2730;51.512;7.504;2024-02-04T12:24:47;10.90;1.00
5415;DHT22;2730;51.512;7.504;2024-02-04T12:27:15;10.90;1.00
5415;DHT22;2730;51.512;7.504;2024-02-04T12:29:44;10.90;1.00
5415;DHT22;2730;51.512;7.504;2024-02-04T12:32:13;10.80;1.00
5415;DHT22;2730;51.512;7.504;2024-02-04T12:34:40;10.80;1.00
5415;DHT22;2730;51.512;7.504;2024-02-04T12:37:07;10.80;1.00
5415;DHT22;2730;51.512;7.504;2024-02-04T12:39:38;10.70;1.00
5415;DHT22;2730;51.512;7.504;2024-02-04T12:42:05;10.70;1.00
5415;DHT22;2730;51.512;7.504;2024-02-04T12:44:32;10.60;6.80
5415;DHT22;2730;51.512;7.504;2024-02-04T12:46:58;10.70;17.30
5415;DHT22;2730;51.512;7.504;2024-02-04T12:49:24;10.70;18.90
5415;DHT22;2730;51.512;7.504;2024-02-04T12:51:51;10.70;22.30
5415;DHT22;2730;51.512;7.504;2024-02-04T12:54:19;10.70;32.00
5415;DHT22;2730;51.512;7.504;2024-02-04T12:56:48;10.60;36.60
5415;DHT22;2730;51.512;7.504;2024-02-04T12:59:28;10.60;48.00
5415;DHT22;2730;51.512;7.504;2024-02-04T13:01:56;10.70;63.00
5415;DHT22;2730;51.512;7.504;2024-02-04T13:04:25;10.70;60.10
5415;DHT22;2730;51.512;7.504;2024-02-04T13:06:54;10.70;61.50
5415;DHT22;2730;51.512;7.504;2024-02-04T13:09:20;10.70;70.10
5415;DHT22;2730;51.512;7.504;2024-02-04T13:11:51;10.70;67.30
5415;DHT22;2730;51.512;7.504;2024-02-04T13:14:18;10.80;67.60
5415;DHT22;2730;51.512;7.504;2024-02-04T13:16:48;10.70;53.40
5415;DHT22;2730;51.512;7.504;2024-02-04T13:19:16;10.70;54.00
5415;DHT22;2730;51.512;7.504;2024-02-04T13:21:46;10.70;48.10
5415;DHT22;2730;51.512;7.504;2024-02-04T13:24:14;10.70;49.80
5415;DHT22;2730;51.512;7.504;2024-02-04T13:26:42;10.80;57.10
5415;DHT22;2730;51.512;7.504;2024-02-04T13:29:10;10.80;55.50
5415;DHT22;2730;51.512;7.504;2024-02-04T13:31:37;10.80;58.00
5415;DHT22;2730;51.512;7.504;2024-02-04T13:34:04;10.80;55.70
5415;DHT22;2730;51.512;7.504;2024-02-04T13:36:31;10.70;64.10
5415;DHT22;2730;51.512;7.504;2024-02-04T13:38:59;10.70;68.80
5415;DHT22;2730;51.512;7.504;2024-02-04T13:41:27;10.70;79.40
5415;DHT22;2730;51.512;7.504;2024-02-04T13:43:54;10.70;86.30
5415;DHT22;2730;51.512;7.504;2024-02-04T13:46:22;10.70;92.40
5415;DHT22;2730;51.512;7.504;2024-02-04T13:48:49;10.70;97.20
5415;DHT22;2730;51.512;7.504;2024-02-04T13:51:16;10.60;95.30
5415;DHT22;2730;51.512;7.504;2024-02-04T13:53:43;10.60;96.30
5415;DHT22;2730;51.512;7.504;2024-02-04T13:56:12;10.60;99.50
5415;DHT22;2730;51.512;7.504;2024-02-04T13:58:39;10.60;99.90
5415;DHT22;2730;51.512;7.504;2024-02-04T14:01:06;10.70;99.90
5415;DHT22;2730;51.512;7.504;2024-02-04T14:03:34;10.70;99.90
5415;DHT22;2730;51.512;7.504;2024-02-04T14:06:02;10.70;99.90
5415;DHT22;2730;51.512;7.504;2024-02-04T14:08:29;10.70;99.90
5415;DHT22;2730;51.512;7.504;2024-02-04T14:10:56;10.60;99.90
5415;DHT22;2730;51.512;7.504;2024-02-04T14:13:24;10.60;99.90
5415;DHT22;2730;51.512;7.504;2024-02-04T14:15:51;10.70;99.90
5415;DHT22;2730;51.512;7.504;2024-02-04T14:18:18;10.60;99.90
5415;DHT22;2730;51.512;7.504;2024-02-04T14:20:47;10.60;99.90
5415;DHT22;2730;51.512;7.504;2024-02-04T14:23:15;10.60;99.90
5415;DHT22;2730;51.512;7.504;2024-02-04T14:25:42;10.50;99.90
5415;DHT22;2730;51.512;7.504;2024-02-04T14:28:10;10.50;99.90
5415;DHT22;2730;51.512;7.504;2024-02-04T14:30:38;10.50;99.90
5415;DHT22;2730;51.512;7.504;2024-02-04T14:33:06;10.50;99.90
5415;DHT22;2730;51.512;7.504;2024-02-04T14:35:35;10.50;99.90
5415;DHT22;2730;51.512;7.504;2024-02-04T14:38:04;10.50;99.90
5415;DHT22;2730;51.512;7.504;2024-02-04T14:40:32;10.50;99.90
5415;DHT22;2730;51.512;7.504;2024-02-04T14:42:59;10.50;99.90
5415;DHT22;2730;51.512;7.504;2024-02-04T14:45:29;10.50;99.90
5415;DHT22;2730;51.512;7.504;2024-02-04T14:47:55;10.50;99.90
5415;DHT22;2730;51.512;7.504;2024-02-04T14:50:22;10.50;99.90
5415;DHT22;2730;51.512;7.504;2024-02-04T14:52:49;10.40;99.90
5415;DHT22;2730;51.512;7.504;2024-02-04T14:55:18;10.50;99.90
5415;DHT22;2730;51.512;7.504;2024-02-04T14:57:46;10.40;99.90
5415;DHT22;2730;51.512;7.504;2024-02-04T15:00:21;10.50;99.90
5415;DHT22;2730;51.512;7.504;2024-02-04T15:02:50;10.50;99.90
5415;DHT22;2730;51.512;7.504;2024-02-04T15:05:17;10.50;99.90
5415;DHT22;2730;51.512;7.504;2024-02-04T15:07:49;10.40;95.80
5415;DHT22;2730;51.512;7.504;2024-02-04T15:10:19;10.40;90.20
5415;DHT22;2730;51.512;7.504;2024-02-04T15:12:46;10.40;77.30
5415;DHT22;2730;51.512;7.504;2024-02-04T15:15:14;10.40;74.20
5415;DHT22;2730;51.512;7.504;2024-02-04T15:17:43;10.40;70.70
5415;DHT22;2730;51.512;7.504;2024-02-04T15:20:09;10.40;70.90
5415;DHT22;2730;51.512;7.504;2024-02-04T15:22:39;10.40;66.60
5415;DHT22;2730;51.512;7.504;2024-02-04T15:25:09;10.40;65.70
5415;DHT22;2730;51.512;7.504;2024-02-04T15:27:40;10.40;68.20
5415;DHT22;2730;51.512;7.504;2024-02-04T15:30:08;10.50;62.50
5415;DHT22;2730;51.512;7.504;2024-02-04T15:32:36;10.50;65.30
5415;DHT22;2730;51.512;7.504;2024-02-04T15:35:04;10.50;67.70
5415;DHT22;2730;51.512;7.504;2024-02-04T15:37:32;10.40;63.90
5415;DHT22;2730;51.512;7.504;2024-02-04T15:39:59;10.40;67.20
5415;DHT22;2730;51.512;7.504;2024-02-04T15:42:26;10.40;73.30
5415;DHT22;2730;51.512;7.504;2024-02-04T15:44:54;10.40;56.60
5415;DHT22;2730;51.512;7.504;2024-02-04T15:47:23;10.40;52.60
5415;DHT22;2730;51.512;7.504;2024-02-04T15:49:50;10.30;55.70
5415;DHT22;2730;51.512;7.504;2024-02-04T15:52:17;10.30;70.80
5415;DHT22;2730;51.512;7.504;2024-02-04T15:54:44;10.30;85.50
5415;DHT22;2730;51.512;7.504;2024-02-04T15:57:12;10.30;91.60
5415;DHT22;2730;51.512;7.504;2024-02-04T15:59:50;10.30;96.40
5415;DHT22;2730;51.512;7.504;2024-02-04T16:02:21;10.30;99.90
5415;DHT22;2730;51.512;7.504;2024-02-04T16:04:48;10.30;99.90
5415;DHT22;2730;51.512;7.504;2024-02-04T16:07:18;10.30;99.90
5415;DHT22;2730;51.512;7.504;2024-02-04T16:09:47;10.30;99.90
5415;DHT22;2730;51.512;7.504;2024-02-04T16:12:17;10.40;99.90
5415;DHT22;2730;51.512;7.504;2024-02-04T16:14:45;10.40;99.90
5415;DHT22;2730;51.512;7.504;2024-02-04T16:17:15;10.40;98.50